Time;durP1;ratioP1;P1;durP2;ratioP2;P2;SDS_P1;SDS_P2;PMS_P1;PMS_P2;Temp;Humidity;BMP_temperature;BMP_pressure;BME280_temperature;BME280_humidity;BME280_pressure;Samples;Min_cycle;Max_cycle;Signal;HPM_P1;HPM_P2
2024/01/19 00:01:34;;;;;;;13.07;2.03;;;0.00;99.90;;;;;;5026555;28;20049;-68
2024/01/19 00:04:00;;;;;;;4.37;1.87;;;0.00;99.90;;;;;;5029844;28;20400;-68
2024/01/19 00:06:25;;;;;;;7.57;2.53;;;0.00;99.90;;;;;;5029138;28;20041;-69
2024/01/19 00:08:51;;;;;;;9.70;2.10;;;0.00;99.90;;;;;;5026576;28;20049;-68
2024/01/19 00:11:17;;;;;;;9.77;2.23;;;0.00;99.90;;;;;;5030341;28;20387;-69
2024/01/19 00:13:43;;;;;;;;;;;0.00;99.90;;;;;;5028287;28;20065;-68
2024/01/19 00:16:09;;;;;;;10.75;2.05;;;0.00;99.90;;;;;;5023419;28;19972;-69
2024/01/19 00:18:35;;;;;;;5.78;1.67;;;0.00;99.90;;;;;;5029103;28;20048;-69
2024/01/19 00:21:00;;;;;;;4.87;2.37;;;0.00;99.90;;;;;;5027291;28;20091;-70
2024/01/19 00:23:26;;;;;;;8.93;2.23;;;-0.10;99.90;;;;;;5026834;28;20049;-68
2024/01/19 00:25:52;;;;;;;6.53;2.35;;;-0.10;99.90;;;;;;5011038;28;20134;-68
2024/01/19 00:28:17;;;;;;;9.37;1.80;;;-0.10;99.90;;;;;;5030186;28;20037;-69
2024/01/19 00:30:43;;;;;;;10.93;1.70;;;-0.10;99.90;;;;;;5029573;28;20041;-69
2024/01/19 00:33:09;;;;;;;6.73;2.13;;;-0.10;99.90;;;;;;5027424;28;20148;-69
2024/01/19 00:35:35;;;;;;;;;;;-0.10;99.90;;;;;;5028360;28;20121;-68
2024/01/19 00:38:00;;;;;;;10.57;2.40;;;-0.10;99.90;;;;;;5027116;28;20008;-69
2024/01/19 00:40:26;;;;;;;8.97;2.07;;;-0.10;99.90;;;;;;5029107;28;20565;-68
2024/01/19 00:42:52;;;;;;;6.73;2.60;;;-0.10;99.90;;;;;;5028225;28;20045;-68
2024/01/19 00:45:17;;;;;;;11.50;3.07;;;-0.10;99.90;;;;;;5030783;28;20056;-68
2024/01/19 00:47:43;;;;;;;8.50;3.73;;;-0.20;99.90;;;;;;5028244;28;20048;-69
2024/01/19 00:50:09;;;;;;;6.67;2.80;;;-0.20;99.90;;;;;;5028634;28;20051;-69
2024/01/19 00:52:35;;;;;;;8.77;2.72;;;-0.20;99.90;;;;;;5025998;28;20041;-69
2024/01/19 00:55:01;;;;;;;10.77;3.40;;;-0.20;99.90;;;;;;5030298;28;20029;-68
2024/01/19 00:57:26;;;;;;;10.80;2.53;;;-0.20;99.90;;;;;;5027422;28;20045;-69
2024/01/19 00:59:54;;;;;;;7.93;2.83;;;-0.10;99.90;;;;;;5010872;28;20900;-70
2024/01/19 01:02:20;;;;;;;9.32;2.95;;;-0.10;99.90;;;;;;5032526;28;20048;-68
2024/01/19 01:04:46;;;;;;;4.47;2.75;;;-0.10;99.90;;;;;;5026672;28;20049;-68
2024/01/19 01:07:12;;;;;;;13.68;3.53;;;-0.10;99.90;;;;;;5027286;28;20038;-70
2024/01/19 01:09:38;;;;;;;13.25;3.47;;;-0.10;99.90;;;;;;5023843;28;20504;-70
2024/01/19 01:12:04;;;;;;;10.50;3.70;;;-0.10;99.90;;;;;;5029208;28;20090;-70
2024/01/19 01:14:30;;;;;;;5.65;2.47;;;-0.10;99.90;;;;;;5033716;28;20049;-70
2024/01/19 01:16:56;;;;;;;7.53;2.95;;;-0.10;99.90;;;;;;5031924;28;20079;-70
2024/01/19 01:19:21;;;;;;;7.20;2.67;;;-0.10;99.90;;;;;;5025570;28;20034;-70
2024/01/19 01:21:47;;;;;;;4.37;2.50;;;-0.10;99.90;;;;;;5030864;28;20046;-71
2024/01/19 01:24:13;;;;;;;3.13;1.60;;;-0.10;99.90;;;;;;5030882;28;20048;-68
2024/01/19 01:26:38;;;;;;;4.77;2.80;;;-0.10;99.90;;;;;;5031049;28;20035;-68
2024/01/19 01:29:04;;;;;;;13.50;2.47;;;-0.10;99.90;;;;;;5034907;28;20268;-68
2024/01/19 01:31:30;;;;;;;4.57;2.27;;;-0.20;99.90;;;;;;5030554;28;20199;-68
2024/01/19 01:33:55;;;;;;;8.83;3.07;;;-0.20;99.90;;;;;;5015361;28;20045;-68
2024/01/19 01:36:21;;;;;;;9.57;3.70;;;-0.20;99.90;;;;;;5031792;28;20038;-68
2024/01/19 01:38:47;;;;;;;8.80;3.63;;;-0.20;99.90;;;;;;5032872;28;20100;-70
2024/01/19 01:41:12;;;;;;;6.32;2.97;;;-0.30;99.90;;;;;;5027186;28;20132;-68
2024/01/19 01:43:38;;;;;;;6.83;3.43;;;-0.30;99.90;;;;;;5030557;28;20128;-68
2024/01/19 01:46:04;;;;;;;14.63;2.83;;;-0.30;99.90;;;;;;5033470;28;20036;-68
2024/01/19 01:48:29;;;;;;;8.37;3.30;;;-0.30;99.90;;;;;;5034552;28;20044;-69
2024/01/19 01:50:57;;;;;;;4.47;2.10;;;-0.30;99.90;;;;;;5027625;28;20557;-68
2024/01/19 01:53:23;;;;;;;6.32;2.33;;;-0.30;99.90;;;;;;5030629;28;20295;-69
2024/01/19 01:55:50;;;;;;;8.45;2.60;;;-0.30;99.90;;;;;;5028778;28;20028;-69
2024/01/19 01:58:16;;;;;;;6.07;1.85;;;-0.30;99.90;;;;;;5028641;28;20116;-69
2024/01/19 02:00:43;;;;;;;4.70;2.10;;;-0.20;99.90;;;;;;5031636;28;20048;-70
2024/01/19 02:03:09;;;;;;;;;;;-0.20;99.90;;;;;;5032874;28;20060;-69
2024/01/19 02:05:34;;;;;;;4.53;1.65;;;-0.20;99.90;;;;;;5031355;28;19942;-68
2024/01/19 02:08:00;;;;;;;7.10;1.93;;;-0.10;99.90;;;;;;5030855;28;20125;-69
2024/01/19 02:10:26;;;;;;;7.00;2.13;;;-0.10;99.90;;;;;;5030714;28;20264;-68
2024/01/19 02:12:52;;;;;;;3.77;1.83;;;-0.10;99.90;;;;;;5029755;28;20103;-68
2024/01/19 02:15:21;;;;;;;2.40;1.80;;;-0.10;99.90;;;;;;5031859;28;20351;-69
2024/01/19 02:17:49;;;;;;;4.97;2.65;;;-0.10;99.90;;;;;;5031021;28;20044;-69
2024/01/19 02:20:15;;;;;;;5.57;3.15;;;0.00;99.90;;;;;;5031518;28;20041;-68
2024/01/19 02:22:43;;;;;;;8.07;1.92;;;0.00;99.90;;;;;;5008275;28;20389;-68
2024/01/19 02:25:09;;;;;;;13.77;2.40;;;-0.10;99.90;;;;;;5032476;28;20056;-70
2024/01/19 02:27:35;;;;;;;6.75;2.42;;;-0.10;99.90;;;;;;5027948;28;20459;-71
2024/01/19 02:30:01;;;;;;;7.13;3.60;;;-0.20;99.90;;;;;;5030879;28;20029;-71
2024/01/19 02:32:27;;;;;;;5.43;1.95;;;-0.20;99.90;;;;;;5029744;28;20046;-68
2024/01/19 02:34:53;;;;;;;7.78;2.55;;;-0.20;99.90;;;;;;5031192;28;20113;-68
2024/01/19 02:37:19;;;;;;;9.05;2.75;;;-0.30;99.90;;;;;;5030204;28;20128;-69
2024/01/19 02:39:45;;;;;;;9.73;3.55;;;-0.30;99.90;;;;;;5031798;28;20034;-70
2024/01/19 02:42:10;;;;;;;1.98;1.38;;;-0.40;99.90;;;;;;5029742;28;20096;-69
2024/01/19 02:44:36;;;;;;;5.30;1.77;;;-0.50;99.90;;;;;;5028860;28;20054;-69
2024/01/19 02:47:02;;;;;;;8.00;2.00;;;-0.50;99.90;;;;;;5032375;28;20137;-68
2024/01/19 02:49:28;;;;;;;5.63;2.53;;;-0.50;99.90;;;;;;5029157;28;20091;-68
2024/01/19 02:51:54;;;;;;;6.38;2.03;;;-0.60;99.90;;;;;;5029171;28;20129;-68
2024/01/19 02:54:20;;;;;;;8.30;2.60;;;-0.60;99.90;;;;;;5028984;28;20466;-68
2024/01/19 02:56:45;;;;;;;9.93;3.27;;;-0.60;99.90;;;;;;5031080;28;20034;-69
2024/01/19 02:59:11;;;;;;;15.43;3.27;;;-0.60;99.90;;;;;;5029335;28;20103;-70
2024/01/19 03:01:36;;;;;;;9.20;2.63;;;-0.60;99.90;;;;;;5025918;28;20133;-68
2024/01/19 03:04:03;;;;;;;6.57;2.80;;;-0.60;99.90;;;;;;5028228;28;20079;-69
2024/01/19 03:06:29;;;;;;;4.80;2.03;;;-0.60;99.90;;;;;;5030741;28;20037;-69
2024/01/19 03:08:54;;;;;;;13.07;3.33;;;-0.70;99.90;;;;;;5030732;28;20193;-68
2024/01/19 03:11:20;;;;;;;5.63;2.80;;;-0.60;99.90;;;;;;5029184;28;20114;-69
2024/01/19 03:13:46;;;;;;;10.43;2.80;;;-0.70;99.90;;;;;;5028370;28;20038;-69
2024/01/19 03:16:11;;;;;;;10.03;2.77;;;-0.60;99.90;;;;;;5030990;28;20322;-69
2024/01/19 03:18:37;;;;;;;14.90;2.80;;;-0.60;99.90;;;;;;5034252;28;20930;-70
2024/01/19 03:21:03;;;;;;;4.77;2.40;;;-0.50;99.90;;;;;;5031550;28;20053;-69
2024/01/19 03:23:28;;;;;;;8.35;3.25;;;-0.50;99.90;;;;;;5031367;28;20037;-69
2024/01/19 03:25:54;;;;;;;10.00;2.70;;;-0.40;99.90;;;;;;5030484;28;20038;-69
2024/01/19 03:28:19;;;;;;;5.47;3.20;;;-0.40;99.90;;;;;;5032755;28;20063;-69
2024/01/19 03:30:45;;;;;;;5.70;2.60;;;-0.30;99.90;;;;;;5038651;28;20045;-70
2024/01/19 03:33:11;;;;;;;11.13;3.10;;;-0.30;99.90;;;;;;5044484;28;20044;-70
2024/01/19 03:35:36;;;;;;;4.00;2.13;;;-0.30;99.90;;;;;;5044027;28;20080;-70
2024/01/19 03:38:02;;;;;;;6.10;1.93;;;-0.30;99.90;;;;;;5039406;28;20060;-70
2024/01/19 03:40:27;;;;;;;6.87;2.57;;;-0.30;99.90;;;;;;5028157;28;20046;-69
2024/01/19 03:42:53;;;;;;;6.67;1.27;;;-0.40;99.90;;;;;;5028104;28;20794;-70
2024/01/19 03:45:19;;;;;;;7.80;1.23;;;-0.40;99.90;;;;;;5026085;28;20033;-69
2024/01/19 03:47:45;;;;;;;3.23;1.20;;;-0.40;99.90;;;;;;5029570;28;20029;-69
2024/01/19 03:50:11;;;;;;;9.40;1.55;;;-0.40;99.90;;;;;;5010705;28;20045;-69
2024/01/19 03:52:37;;;;;;;5.90;2.10;;;-0.40;99.90;;;;;;5030165;28;20504;-70
2024/01/19 03:55:06;;;;;;;7.43;1.70;;;-0.50;99.90;;;;;;5027039;28;20431;-69
2024/01/19 03:57:32;;;;;;;3.67;2.15;;;-0.50;99.90;;;;;;5029212;28;20132;-70
2024/01/19 03:59:58;;;;;;;3.80;2.13;;;-0.50;99.90;;;;;;5030066;28;20490;-70
2024/01/19 04:02:23;;;;;;;3.90;1.60;;;-0.50;99.90;;;;;;5031045;28;20132;-69
2024/01/19 04:04:49;;;;;;;6.57;2.00;;;-0.40;99.90;;;;;;5029030;28;20412;-69
2024/01/19 04:07:15;;;;;;;4.00;1.73;;;-0.50;99.90;;;;;;5031861;28;20097;-69
2024/01/19 04:09:41;;;;;;;3.35;1.80;;;-0.50;99.90;;;;;;5029600;28;20287;-69
2024/01/19 04:12:14;;;;;;;4.28;1.90;;;-0.50;99.90;;;;;;5030615;28;20509;-69
2024/01/19 04:14:41;;;;;;;4.80;2.25;;;-0.50;99.90;;;;;;5027995;28;20053;-70
2024/01/19 04:17:08;;;;;;;3.15;1.83;;;-0.50;99.90;;;;;;5028787;28;20056;-68
2024/01/19 04:19:34;;;;;;;5.78;1.25;;;-0.50;99.90;;;;;;5028407;28;20052;-69
2024/01/19 04:22:00;;;;;;;4.85;1.60;;;-0.50;99.90;;;;;;5027362;28;20044;-69
2024/01/19 04:24:25;;;;;;;2.08;1.77;;;-0.50;99.90;;;;;;5027734;28;20416;-69
2024/01/19 04:26:51;;;;;;;6.20;2.30;;;-0.60;99.90;;;;;;5029642;28;20046;-69
2024/01/19 04:29:17;;;;;;;4.37;1.80;;;-0.60;99.90;;;;;;5029755;28;20283;-69
2024/01/19 04:31:42;;;;;;;2.50;1.97;;;-0.70;99.90;;;;;;5020832;28;20040;-68
2024/01/19 04:34:08;;;;;;;7.07;2.10;;;-0.70;99.90;;;;;;5029002;28;20060;-68
2024/01/19 04:36:34;;;;;;;8.05;3.17;;;-0.70;99.90;;;;;;5025803;28;20045;-69
2024/01/19 04:39:00;;;;;;;7.73;3.30;;;-0.70;99.90;;;;;;5030637;28;20427;-69
2024/01/19 04:41:25;;;;;;;10.67;3.37;;;-0.70;99.90;;;;;;5029334;28;20330;-69
2024/01/19 04:43:51;;;;;;;8.23;2.40;;;-0.60;99.90;;;;;;5031632;28;20543;-69
2024/01/19 04:46:17;;;;;;;5.97;2.07;;;-0.60;99.90;;;;;;5030719;28;20279;-69
2024/01/19 04:48:42;;;;;;;12.60;2.67;;;-0.50;99.90;;;;;;5033646;28;20037;-69
2024/01/19 04:51:08;;;;;;;5.53;2.67;;;-0.50;99.90;;;;;;5036872;28;20439;-69
2024/01/19 04:53:34;;;;;;;4.20;2.15;;;-0.40;99.90;;;;;;5035329;28;20115;-69
2024/01/19 04:56:03;;;;;;;7.63;2.20;;;-0.40;99.90;;;;;;5029948;28;20029;-69
2024/01/19 04:58:28;;;;;;;10.00;2.65;;;-0.30;99.90;;;;;;5031594;28;20041;-69
2024/01/19 05:00:54;;;;;;;3.97;1.93;;;-0.30;99.90;;;;;;5029173;28;20095;-68
2024/01/19 05:03:19;;;;;;;3.37;2.20;;;-0.20;99.90;;;;;;5032312;28;20124;-69
2024/01/19 05:05:45;;;;;;;7.03;2.23;;;-0.20;99.90;;;;;;5029874;28;20118;-70
2024/01/19 05:08:10;;;;;;;5.87;2.43;;;-0.20;99.90;;;;;;5031627;28;20035;-69
2024/01/19 05:10:36;;;;;;;9.60;3.33;;;-0.10;99.90;;;;;;5029796;28;20045;-70
2024/01/19 05:13:03;;;;;;;5.27;3.77;;;-0.10;99.90;;;;;;5033398;28;20069;-69
2024/01/19 05:15:28;;;;;;;9.77;4.10;;;0.00;99.90;;;;;;5034158;28;20397;-69
2024/01/19 05:17:54;;;;;;;4.33;3.93;;;0.00;99.90;;;;;;5033105;28;20085;-69
2024/01/19 05:20:20;;;;;;;4.23;3.50;;;0.00;99.90;;;;;;5033004;28;20029;-69
2024/01/19 05:22:45;;;;;;;7.67;4.30;;;0.10;99.90;;;;;;5030146;28;20672;-70
2024/01/19 05:25:11;;;;;;;9.70;4.90;;;0.10;99.90;;;;;;5035990;28;20037;-68
2024/01/19 05:27:37;;;;;;;9.75;4.85;;;0.10;99.90;;;;;;5029261;28;20092;-69
2024/01/19 05:30:03;;;;;;;7.80;6.33;;;0.20;99.90;;;;;;5036153;28;20038;-69
2024/01/19 05:32:28;;;;;;;9.35;6.15;;;0.20;99.90;;;;;;5031766;28;20045;-69
2024/01/19 05:34:54;;;;;;;15.43;8.03;;;0.20;99.90;;;;;;5034817;28;20091;-68
2024/01/19 05:37:20;;;;;;;9.27;5.80;;;0.20;99.90;;;;;;5028609;28;20268;-69
2024/01/19 05:39:45;;;;;;;10.03;5.40;;;0.20;99.90;;;;;;5030681;28;20447;-68
2024/01/19 05:42:11;;;;;;;9.40;5.40;;;0.20;99.90;;;;;;5031740;28;20458;-71
2024/01/19 05:44:39;;;;;;;10.37;6.47;;;0.10;99.90;;;;;;5031796;28;20056;-69
2024/01/19 05:47:04;;;;;;;16.60;7.30;;;0.10;99.90;;;;;;5031655;28;20029;-69
2024/01/19 05:49:30;;;;;;;15.80;7.23;;;0.10;99.90;;;;;;5031561;28;20458;-69
2024/01/19 05:51:55;;;;;;;14.23;6.63;;;0.00;99.90;;;;;;5031971;28;20042;-70
2024/01/19 05:54:21;;;;;;;10.47;6.97;;;0.00;99.90;;;;;;5026998;28;20037;-69
2024/01/19 05:56:46;;;;;;;14.23;7.27;;;-0.10;99.90;;;;;;5031722;28;20488;-70
2024/01/19 05:59:12;;;;;;;14.13;7.80;;;-0.20;99.90;;;;;;5031927;28;20041;-70
2024/01/19 06:01:38;;;;;;;10.73;7.90;;;-0.20;99.90;;;;;;5032376;28;20124;-70
2024/01/19 06:04:03;;;;;;;10.93;7.53;;;-0.30;99.90;;;;;;5035715;28;20201;-70
2024/01/19 06:06:29;;;;;;;14.60;7.70;;;-0.30;99.90;;;;;;5034062;28;20463;-69
2024/01/19 06:08:54;;;;;;;11.17;6.43;;;-0.30;99.90;;;;;;5030364;28;20037;-70
2024/01/19 06:11:20;;;;;;;10.47;7.83;;;-0.40;99.90;;;;;;5031446;28;20049;-70
2024/01/19 06:13:47;;;;;;;16.92;8.32;;;-0.40;99.90;;;;;;5032095;28;20060;-69
2024/01/19 06:16:13;;;;;;;11.73;7.40;;;-0.50;99.90;;;;;;5033148;28;20048;-68
2024/01/19 06:18:38;;;;;;;9.40;6.50;;;-0.50;99.90;;;;;;5031598;28;20466;-70
2024/01/19 06:21:09;;;;;;;12.10;6.87;;;-0.50;99.90;;;;;;5027532;28;20044;-69
2024/01/19 06:23:36;;;;;;;8.40;5.63;;;-0.50;99.90;;;;;;5028587;28;20037;-68
2024/01/19 06:26:07;;;;;;;9.82;6.03;;;-0.50;99.90;;;;;;5027788;28;20463;-68
2024/01/19 06:28:32;;;;;;;8.55;6.10;;;-0.60;99.90;;;;;;5030432;28;20041;-68
2024/01/19 06:30:58;;;;;;;8.23;5.83;;;-0.60;99.90;;;;;;5028197;28;20048;-69
2024/01/19 06:33:23;;;;;;;11.70;6.60;;;-0.60;99.90;;;;;;5030233;28;20500;-69
2024/01/19 06:35:49;;;;;;;10.53;4.37;;;-0.60;99.90;;;;;;5031451;28;20039;-68
2024/01/19 06:38:15;;;;;;;6.38;4.40;;;-0.60;99.90;;;;;;5026924;28;20034;-69
2024/01/19 06:40:41;;;;;;;8.70;4.20;;;-0.70;99.90;;;;;;5027788;28;20107;-69
2024/01/19 06:43:06;;;;;;;14.80;3.87;;;-0.60;99.90;;;;;;5032362;28;20045;-69
2024/01/19 06:45:32;;;;;;;10.47;4.47;;;-0.70;99.90;;;;;;5029620;28;20412;-69
2024/01/19 06:47:57;;;;;;;3.53;3.23;;;-0.70;99.90;;;;;;5028244;28;20408;-68
2024/01/19 06:50:23;;;;;;;3.70;2.43;;;-0.70;99.90;;;;;;5029493;28;20488;-69
2024/01/19 06:52:49;;;;;;;8.00;3.10;;;-0.80;99.90;;;;;;5026063;28;20064;-69
2024/01/19 06:55:14;;;;;;;5.50;2.40;;;-0.80;99.90;;;;;;5022132;28;20151;-69
2024/01/19 06:57:40;;;;;;;12.27;2.20;;;-0.80;99.90;;;;;;5029718;28;20163;-68
2024/01/19 07:00:06;;;;;;;9.43;2.50;;;-0.80;99.90;;;;;;5028420;28;20419;-68
2024/01/19 07:02:32;;;;;;;;;;;-0.80;99.90;;;;;;5028005;28;20042;-68
2024/01/19 07:04:58;;;;;;;2.63;1.67;;;-0.90;99.90;;;;;;5027332;28;19991;-69
2024/01/19 07:07:23;;;;;;;5.10;2.05;;;-0.90;99.90;;;;;;5008812;28;20496;-68
2024/01/19 07:09:49;;;;;;;5.03;1.90;;;-0.90;99.90;;;;;;5036264;28;20076;-70
2024/01/19 07:12:16;;;;;;;4.87;1.70;;;-0.90;99.90;;;;;;5031835;28;20029;-69
2024/01/19 07:14:42;;;;;;;5.70;1.10;;;-0.90;99.90;;;;;;5012637;28;20036;-69
2024/01/19 07:17:07;;;;;;;2.03;1.00;;;-0.90;99.90;;;;;;5033744;28;20041;-69
2024/01/19 07:19:35;;;;;;;4.50;0.90;;;-0.80;99.90;;;;;;5029762;28;20415;-69
2024/01/19 07:22:00;;;;;;;9.18;1.30;;;-0.70;99.90;;;;;;5029899;28;20112;-69
2024/01/19 07:24:29;;;;;;;4.67;1.17;;;-0.60;99.90;;;;;;5029919;28;20547;-69
2024/01/19 07:26:55;;;;;;;7.25;1.35;;;-0.60;99.90;;;;;;5029813;28;20048;-69
2024/01/19 07:29:20;;;;;;;5.33;1.30;;;-0.50;99.90;;;;;;5031502;28;20037;-68
2024/01/19 07:31:46;;;;;;;7.53;1.37;;;-0.50;99.90;;;;;;5029303;28;20103;-69
2024/01/19 07:34:12;;;;;;;9.67;8.70;;;-0.50;99.90;;;;;;5028652;28;20408;-69
2024/01/19 07:36:37;;;;;;;19.17;17.37;;;-0.50;99.90;;;;;;5023849;28;20131;-68
2024/01/19 07:39:03;;;;;;;16.83;13.27;;;-0.50;99.90;;;;;;5030194;28;20048;-69
2024/01/19 07:41:29;;;;;;;12.13;8.02;;;-0.60;99.90;;;;;;5027404;28;20045;-69
2024/01/19 07:43:55;;;;;;;8.83;6.23;;;-0.60;99.90;;;;;;5006362;28;20050;-69
2024/01/19 07:46:21;;;;;;;17.00;8.75;;;-0.50;99.90;;;;;;5009585;28;20116;-68
2024/01/19 07:48:46;;;;;;;15.43;2.67;;;-0.50;99.90;;;;;;5025789;28;20163;-68
2024/01/19 07:51:12;;;;;;;8.63;6.17;;;-0.50;99.90;;;;;;5024192;28;21042;-69
2024/01/19 07:53:38;;;;;;;5.87;1.90;;;-0.40;99.90;;;;;;5022781;28;20085;-69
2024/01/19 07:56:04;;;;;;;3.63;2.67;;;-0.30;99.90;;;;;;5010535;28;20099;-69
2024/01/19 07:58:29;;;;;;;7.35;3.53;;;-0.20;99.90;;;;;;5030703;28;20044;-70
2024/01/19 08:00:55;;;;;;;7.13;4.33;;;-0.10;99.90;;;;;;5030511;28;20432;-69
2024/01/19 08:03:21;;;;;;;11.57;5.43;;;0.10;99.90;;;;;;5027288;28;20036;-69
2024/01/19 08:05:46;;;;;;;5.75;1.50;;;0.20;99.90;;;;;;5027484;28;20029;-69
2024/01/19 08:08:12;;;;;;;11.87;5.63;;;0.20;99.90;;;;;;5030023;28;20435;-70
2024/01/19 08:10:38;;;;;;;8.03;6.23;;;0.30;99.90;;;;;;5030564;28;20777;-68
2024/01/19 08:13:03;;;;;;;8.73;3.60;;;0.40;99.90;;;;;;5029442;28;20045;-69
2024/01/19 08:15:29;;;;;;;6.40;3.10;;;0.70;99.90;;;;;;5010515;28;20500;-69
2024/01/19 08:17:55;;;;;;;5.28;0.98;;;1.10;99.90;;;;;;5028564;28;20048;-69
2024/01/19 08:20:21;;;;;;;4.35;0.80;;;1.50;99.90;;;;;;5031589;28;20068;-69
2024/01/19 08:22:47;;;;;;;4.80;0.73;;;1.80;99.90;;;;;;5010590;28;20038;-69
2024/01/19 08:25:14;;;;;;;3.20;0.70;;;2.20;99.90;;;;;;5032663;28;20041;-69
2024/01/19 08:27:43;;;;;;;;;;;2.50;99.90;;;;;;5033328;28;20037;-69
2024/01/19 08:30:09;;;;;;;5.05;0.55;;;2.90;99.90;;;;;;5029592;28;19929;-69
2024/01/19 08:32:35;;;;;;;7.88;1.40;;;3.20;99.90;;;;;;5031610;28;20049;-70
2024/01/19 08:35:08;;;;;;;3.45;0.70;;;3.50;99.90;;;;;;5010568;28;20042;-69
2024/01/19 08:37:41;;;;;;;1.38;0.30;;;3.70;99.90;;;;;;5031685;28;20059;-70
2024/01/19 08:40:11;;;;;;;1.15;0.82;;;4.00;99.90;;;;;;5031825;28;20119;-69
2024/01/19 08:42:37;;;;;;;2.60;0.50;;;4.10;99.90;;;;;;5032787;28;20086;-70
2024/01/19 08:45:04;;;;;;;1.83;0.73;;;4.30;99.90;;;;;;5023321;28;20060;-69
2024/01/19 08:47:29;;;;;;;;;;;4.60;99.90;;;;;;5026874;28;20056;-69
2024/01/19 08:49:55;;;;;;;2.78;0.82;;;4.90;99.90;;;;;;5030091;28;20326;-70
2024/01/19 08:52:21;;;;;;;2.87;0.30;;;5.00;99.90;;;;;;5040379;28;20037;-69
2024/01/19 08:54:47;;;;;;;5.20;0.60;;;5.20;99.90;;;;;;5022107;28;20993;-70
2024/01/19 08:57:13;;;;;;;2.55;0.40;;;5.10;99.90;;;;;;5021413;28;20386;-70
2024/01/19 08:59:39;;;;;;;2.95;0.57;;;4.90;99.90;;;;;;5026259;28;20029;-69
2024/01/19 09:02:04;;;;;;;1.88;0.70;;;4.30;99.90;;;;;;5033863;28;20435;-69
2024/01/19 09:04:30;;;;;;;2.33;1.25;;;3.80;99.90;;;;;;5032269;28;20095;-68
2024/01/19 09:06:56;;;;;;;2.23;0.77;;;3.40;99.90;;;;;;5036619;28;20432;-69
2024/01/19 09:09:22;;;;;;;3.35;0.50;;;3.50;99.90;;;;;;5034717;28;20040;-69
2024/01/19 09:11:48;;;;;;;3.83;1.25;;;4.10;99.90;;;;;;5031967;28;20041;-69
2024/01/19 09:14:13;;;;;;;5.82;0.68;;;4.80;99.90;;;;;;5031901;28;20028;-69
2024/01/19 09:16:43;;;;;;;4.85;0.52;;;5.70;99.90;;;;;;5031666;28;20083;-69
2024/01/19 09:19:09;;;;;;;9.07;1.02;;;6.40;99.90;;;;;;5035657;28;20500;-69
2024/01/19 09:21:35;;;;;;;3.58;0.60;;;7.00;99.90;;;;;;5032748;28;20041;-69
2024/01/19 09:24:00;;;;;;;3.67;0.30;;;7.60;99.90;;;;;;5035109;28;20044;-69
2024/01/19 09:26:26;;;;;;;1.50;0.50;;;8.20;99.90;;;;;;5036120;28;20291;-69
2024/01/19 09:28:51;;;;;;;7.95;0.77;;;8.80;99.90;;;;;;5033806;28;20037;-69
2024/01/19 09:31:17;;;;;;;5.10;0.80;;;9.00;99.90;;;;;;5035701;28;20503;-69
2024/01/19 09:33:44;;;;;;;5.00;0.85;;;9.10;99.90;;;;;;5034612;28;20341;-69
2024/01/19 09:36:09;;;;;;;4.10;1.05;;;9.30;99.90;;;;;;5035149;28;20049;-70
2024/01/19 09:38:37;;;;;;;3.17;0.53;;;9.50;99.90;;;;;;5037109;28;20702;-69
2024/01/19 09:41:22;;;;;;;5.03;0.75;;;9.60;99.90;;;;;;5043282;28;20288;-70
2024/01/19 09:43:48;;;;;;;3.22;1.05;;;9.90;98.20;;;;;;5021442;28;20265;-70
2024/01/19 09:46:21;;;;;;;2.43;0.67;;;10.30;99.50;;;;;;5035463;28;20029;-69
2024/01/19 09:49:11;;;;;;;6.13;1.55;;;10.60;98.10;;;;;;5030305;28;20416;-70
2024/01/19 09:52:01;;;;;;;4.22;0.70;;;10.90;97.20;;;;;;5019847;28;20128;-69
2024/01/19 09:54:34;;;;;;;5.45;0.95;;;10.80;96.70;;;;;;5032996;28;20095;-68
2024/01/19 09:57:00;;;;;;;4.45;1.08;;;11.20;96.50;;;;;;5030839;28;20056;-68
2024/01/19 09:59:30;;;;;;;5.20;1.05;;;11.50;94.10;;;;;;5026996;28;20189;-68
2024/01/19 10:01:57;;;;;;;5.45;1.10;;;11.50;95.00;;;;;;5029243;28;20041;-68
2024/01/19 10:04:23;;;;;;;8.55;1.73;;;11.20;94.10;;;;;;5022640;28;20033;-68
2024/01/19 10:06:50;;;;;;;2.38;0.75;;;10.40;93.30;;;;;;5022325;28;20428;-68
2024/01/19 10:09:18;;;;;;;5.80;1.13;;;9.80;94.40;;;;;;5027243;28;20037;-66
2024/01/19 10:11:49;;;;;;;3.33;1.13;;;9.20;95.60;;;;;;5027409;28;20044;-65
2024/01/19 10:14:15;;;;;;;2.95;1.40;;;9.50;96.00;;;;;;5023197;28;20451;-65
2024/01/19 10:16:42;;;;;;;4.40;1.17;;;10.10;96.20;;;;;;5020958;28;20038;-66
2024/01/19 10:19:09;;;;;;;5.95;1.70;;;10.60;95.20;;;;;;5029236;28;20037;-65
2024/01/19 10:21:35;;;;;;;7.25;1.88;;;11.30;95.90;;;;;;5033092;28;20068;-66
2024/01/19 10:24:10;;;;;;;6.63;1.50;;;11.90;95.10;;;;;;5028799;28;20033;-67
2024/01/19 10:26:36;;;;;;;7.97;2.17;;;12.60;92.50;;;;;;5033682;28;20045;-67
2024/01/19 10:29:22;;;;;;;;;;;12.90;91.60;;;;;;5045501;28;20492;-66
2024/01/19 10:31:49;;;;;;;4.30;1.15;;;13.00;91.50;;;;;;5030605;28;19932;-67
2024/01/19 10:34:28;;;;;;;6.28;1.77;;;13.40;91.00;;;;;;5031613;28;20125;-67
2024/01/19 10:36:54;;;;;;;6.07;1.90;;;12.90;86.30;;;;;;5035885;28;20054;-67
2024/01/19 10:39:31;;;;;;;7.23;1.70;;;12.10;86.10;;;;;;5033828;28;20040;-67
2024/01/19 10:42:07;;;;;;;6.68;1.67;;;11.40;88.30;;;;;;5035724;28;20611;-67
2024/01/19 10:44:34;;;;;;;7.18;2.08;;;10.50;90.40;;;;;;5034507;28;20102;-67
2024/01/19 10:47:00;;;;;;;5.28;1.95;;;10.20;91.10;;;;;;5035689;28;20041;-67
2024/01/19 10:49:26;;;;;;;4.95;1.88;;;10.30;91.70;;;;;;5034096;28;20116;-66
2024/01/19 10:51:53;;;;;;;4.22;1.42;;;10.00;90.90;;;;;;5027690;28;20041;-67
2024/01/19 10:54:24;;;;;;;6.95;1.92;;;9.20;91.20;;;;;;5027783;28;20024;-67
2024/01/19 10:57:08;;;;;;;5.25;2.30;;;8.80;93.10;;;;;;5025311;28;20071;-67
2024/01/19 10:59:34;;;;;;;4.82;1.85;;;8.20;93.40;;;;;;5008825;28;20415;-67
2024/01/19 11:02:02;;;;;;;3.95;1.35;;;7.60;94.70;;;;;;5025448;28;20045;-67
2024/01/19 11:04:28;;;;;;;5.20;1.50;;;7.00;95.90;;;;;;5025017;28;20050;-67
2024/01/19 11:06:54;;;;;;;6.75;2.03;;;6.60;97.90;;;;;;5030859;28;20064;-67
2024/01/19 11:09:20;;;;;;;3.42;1.48;;;6.40;99.90;;;;;;5024425;28;20037;-67
2024/01/19 11:11:56;;;;;;;8.40;1.52;;;6.70;99.90;;;;;;5029234;28;20408;-67
2024/01/19 11:14:24;;;;;;;5.53;1.58;;;6.90;99.90;;;;;;5020774;28;20034;-67
2024/01/19 11:16:52;;;;;;;4.82;1.48;;;6.80;99.90;;;;;;5016522;28;20045;-67
2024/01/19 11:19:20;;;;;;;6.00;1.20;;;7.00;99.90;;;;;;5023565;28;20045;-67
2024/01/19 11:21:46;;;;;;;4.43;1.80;;;7.10;99.90;;;;;;5025521;28;20538;-67
2024/01/19 11:24:14;;;;;;;8.05;1.85;;;7.10;99.90;;;;;;5024804;28;20408;-67
2024/01/19 11:26:46;;;;;;;5.68;1.40;;;7.30;99.90;;;;;;5019764;28;20037;-68
2024/01/19 11:29:21;;;;;;;6.95;2.03;;;7.30;99.90;;;;;;5023837;28;20052;-67
2024/01/19 11:31:48;;;;;;;3.53;1.35;;;7.10;99.90;;;;;;5022227;28;20115;-66
2024/01/19 11:34:49;;;;;;;7.10;2.28;;;6.90;99.90;;;;;;5030134;28;20094;-67
2024/01/19 11:37:44;;;;;;;6.72;1.63;;;7.20;99.90;;;;;;5024501;28;20120;-66
2024/01/19 11:40:30;;;;;;;7.68;1.55;;;7.80;99.90;;;;;;5008559;28;20511;-67
2024/01/19 11:42:56;;;;;;;8.32;1.85;;;8.60;99.90;;;;;;5028457;28;20056;-67
2024/01/19 11:45:28;;;;;;;8.70;1.70;;;9.00;97.90;;;;;;5028071;28;20037;-67
2024/01/19 11:47:57;;;;;;;5.88;1.67;;;9.20;97.20;;;;;;5029832;28;20069;-67
2024/01/19 11:50:46;;;;;;;6.20;1.58;;;9.30;96.60;;;;;;5025976;28;20373;-67
2024/01/19 11:53:13;;;;;;;7.20;1.20;;;9.60;96.40;;;;;;5025771;28;20143;-67
2024/01/19 11:55:39;;;;;;;;;;;9.80;95.80;;;;;;5020774;28;20056;-67
2024/01/19 11:58:32;;;;;;;6.45;1.40;;;9.80;95.40;;;;;;5019969;28;19927;-67
2024/01/19 12:01:03;;;;;;;5.45;1.30;;;10.00;95.70;;;;;;5027498;28;20041;-67
2024/01/19 12:03:29;;;;;;;7.22;1.63;;;10.20;95.00;;;;;;5027058;28;20095;-67
2024/01/19 12:05:58;;;;;;;6.72;0.95;;;10.40;94.50;;;;;;5027230;28;20432;-67
2024/01/19 12:08:24;;;;;;;6.43;1.33;;;10.80;94.00;;;;;;5026349;28;20475;-67
2024/01/19 12:11:06;;;;;;;8.43;1.85;;;11.10;93.90;;;;;;5025944;28;20036;-67
2024/01/19 12:13:35;;;;;;;7.75;1.40;;;11.60;93.50;;;;;;5022099;28;20049;-67
2024/01/19 12:16:02;;;;;;;10.55;1.77;;;12.00;92.60;;;;;;5025805;28;20042;-67
2024/01/19 12:18:28;;;;;;;13.00;1.73;;;12.00;91.90;;;;;;5027399;28;20045;-67
2024/01/19 12:20:55;;;;;;;5.72;0.70;;;12.30;91.40;;;;;;5021054;28;20163;-68
2024/01/19 12:23:22;;;;;;;8.13;1.42;;;12.80;91.60;;;;;;5021412;28;20041;-67
2024/01/19 12:25:48;;;;;;;9.77;2.45;;;13.50;90.70;;;;;;5024828;28;20400;-67
2024/01/19 12:28:15;;;;;;;5.07;1.67;;;13.90;89.50;;;;;;5031409;28;20080;-67
2024/01/19 12:30:42;;;;;;;12.50;2.08;;;14.40;88.40;;;;;;5027379;28;20388;-67
2024/01/19 12:33:26;;;;;;;7.78;1.30;;;15.00;85.60;;;;;;5000216;28;20358;-67
2024/01/19 12:36:25;;;;;;;7.10;1.48;;;15.10;80.60;;;;;;5027609;28;20050;-67
2024/01/19 12:39:03;;;;;;;7.40;1.42;;;15.50;78.70;;;;;;5021260;28;20493;-68
2024/01/19 12:41:30;;;;;;;10.27;1.33;;;16.10;77.80;;;;;;5026502;28;20045;-67
2024/01/19 12:43:59;;;;;;;8.05;1.85;;;16.10;77.50;;;;;;5021664;28;20103;-67
2024/01/19 12:46:24;;;;;;;12.02;2.10;;;15.90;76.60;;;;;;5030862;28;20045;-67
2024/01/19 12:48:58;;;;;;;8.75;1.90;;;15.90;74.40;;;;;;5034536;28;20448;-67
2024/01/19 12:51:23;;;;;;;6.22;1.17;;;16.20;73.10;;;;;;5031508;28;20132;-67